sensor_id;sensor_type;location;lat;lon;timestamp;P1;durP1;ratioP1;P2;durP2;ratioP2
68870;SDS011;55906;52.278;6.808;2023-08-07T00:01:34;5.95;;;3.70;;
68870;SDS011;55906;52.278;6.808;2023-08-07T00:04:01;5.30;;;3.22;;
68870;SDS011;55906;52.278;6.808;2023-08-07T00:06:29;6.80;;;3.40;;
68870;SDS011;55906;52.278;6.808;2023-08-07T00:08:55;6.40;;;3.53;;
68870;SDS011;55906;52.278;6.808;2023-08-07T00:11:22;6.30;;;3.53;;
68870;SDS011;55906;52.278;6.808;2023-08-07T00:13:49;6.97;;;3.45;;
68870;SDS011;55906;52.278;6.808;2023-08-07T00:16:15;6.80;;;4.07;;
68870;SDS011;55906;52.278;6.808;2023-08-07T00:18:42;5.80;;;3.77;;
68870;SDS011;55906;52.278;6.808;2023-08-07T00:21:08;6.60;;;3.45;;
68870;SDS011;55906;52.278;6.808;2023-08-07T00:23:36;6.75;;;4.55;;
68870;SDS011;55906;52.278;6.808;2023-08-07T00:26:03;6.90;;;4.00;;
68870;SDS011;55906;52.278;6.808;2023-08-07T00:28:30;6.65;;;4.47;;
68870;SDS011;55906;52.278;6.808;2023-08-07T00:30:56;5.93;;;4.00;;
68870;SDS011;55906;52.278;6.808;2023-08-07T00:33:23;6.15;;;3.88;;
68870;SDS011;55906;52.278;6.808;2023-08-07T00:35:49;7.65;;;4.22;;
68870;SDS011;55906;52.278;6.808;2023-08-07T00:38:16;7.60;;;4.13;;
68870;SDS011;55906;52.278;6.808;2023-08-07T00:40:44;6.50;;;4.30;;
68870;SDS011;55906;52.278;6.808;2023-08-07T00:43:11;6.67;;;4.37;;
68870;SDS011;55906;52.278;6.808;2023-08-07T00:45:39;7.80;;;4.47;;
68870;SDS011;55906;52.278;6.808;2023-08-07T00:48:08;7.07;;;4.28;;
68870;SDS011;55906;52.278;6.808;2023-08-07T00:50:35;6.28;;;4.07;;
68870;SDS011;55906;52.278;6.808;2023-08-07T00:53:02;5.95;;;4.35;;
68870;SDS011;55906;52.278;6.808;2023-08-07T00:55:29;5.87;;;4.33;;
68870;SDS011;55906;52.278;6.808;2023-08-07T00:57:57;7.13;;;4.78;;
68870;SDS011;55906;52.278;6.808;2023-08-07T01:00:25;6.32;;;4.43;;
68870;SDS011;55906;52.278;6.808;2023-08-07T01:02:52;6.28;;;3.78;;
68870;SDS011;55906;52.278;6.808;2023-08-07T01:05:23;6.57;;;4.47;;
68870;SDS011;55906;52.278;6.808;2023-08-07T01:07:50;5.60;;;4.07;;
68870;SDS011;55906;52.278;6.808;2023-08-07T01:10:21;5.97;;;4.30;;
68870;SDS011;55906;52.278;6.808;2023-08-07T01:12:52;5.75;;;4.05;;
68870;SDS011;55906;52.278;6.808;2023-08-07T01:15:30;6.40;;;4.75;;
68870;SDS011;55906;52.278;6.808;2023-08-07T01:17:58;6.35;;;3.78;;
68870;SDS011;55906;52.278;6.808;2023-08-07T01:20:25;6.77;;;3.93;;
68870;SDS011;55906;52.278;6.808;2023-08-07T01:22:53;5.95;;;4.03;;
68870;SDS011;55906;52.278;6.808;2023-08-07T01:25:20;6.70;;;3.88;;
68870;SDS011;55906;52.278;6.808;2023-08-07T01:27:50;5.95;;;4.30;;
68870;SDS011;55906;52.278;6.808;2023-08-07T01:30:22;6.53;;;4.47;;
68870;SDS011;55906;52.278;6.808;2023-08-07T01:32:58;5.70;;;3.70;;
68870;SDS011;55906;52.278;6.808;2023-08-07T01:35:29;8.30;;;3.65;;
68870;SDS011;55906;52.278;6.808;2023-08-07T01:38:00;5.78;;;3.83;;
68870;SDS011;55906;52.278;6.808;2023-08-07T01:40:28;5.00;;;3.60;;
68870;SDS011;55906;52.278;6.808;2023-08-07T01:42:55;5.30;;;3.25;;
68870;SDS011;55906;52.278;6.808;2023-08-07T01:45:23;5.87;;;3.60;;
68870;SDS011;55906;52.278;6.808;2023-08-07T01:47:50;5.25;;;3.80;;
68870;SDS011;55906;52.278;6.808;2023-08-07T01:50:17;5.30;;;3.67;;
68870;SDS011;55906;52.278;6.808;2023-08-07T01:52:44;6.20;;;3.45;;
68870;SDS011;55906;52.278;6.808;2023-08-07T01:55:12;7.45;;;3.47;;
68870;SDS011;55906;52.278;6.808;2023-08-07T01:57:38;4.30;;;2.83;;
68870;SDS011;55906;52.278;6.808;2023-08-07T02:00:06;5.35;;;3.13;;
68870;SDS011;55906;52.278;6.808;2023-08-07T02:02:33;5.95;;;3.35;;
68870;SDS011;55906;52.278;6.808;2023-08-07T02:05:00;6.63;;;3.00;;
68870;SDS011;55906;52.278;6.808;2023-08-07T02:07:27;6.03;;;3.67;;
68870;SDS011;55906;52.278;6.808;2023-08-07T02:09:54;10.10;;;3.03;;
68870;SDS011;55906;52.278;6.808;2023-08-07T02:12:22;7.70;;;3.08;;
68870;SDS011;55906;52.278;6.808;2023-08-07T02:14:49;6.53;;;3.70;;
68870;SDS011;55906;52.278;6.808;2023-08-07T02:17:16;6.80;;;2.63;;
68870;SDS011;55906;52.278;6.808;2023-08-07T02:19:42;6.75;;;3.65;;
68870;SDS011;55906;52.278;6.808;2023-08-07T02:22:09;6.67;;;2.77;;
68870;SDS011;55906;52.278;6.808;2023-08-07T02:24:36;6.63;;;2.92;;
68870;SDS011;55906;52.278;6.808;2023-08-07T02:27:02;6.72;;;3.08;;
68870;SDS011;55906;52.278;6.808;2023-08-07T02:29:31;4.88;;;3.10;;
68870;SDS011;55906;52.278;6.808;2023-08-07T02:31:59;7.78;;;3.10;;
68870;SDS011;55906;52.278;6.808;2023-08-07T02:34:26;7.70;;;3.60;;
68870;SDS011;55906;52.278;6.808;2023-08-07T02:36:52;8.68;;;3.60;;
68870;SDS011;55906;52.278;6.808;2023-08-07T02:39:19;8.77;;;3.28;;
68870;SDS011;55906;52.278;6.808;2023-08-07T02:41:45;6.63;;;2.92;;
68870;SDS011;55906;52.278;6.808;2023-08-07T02:44:12;7.82;;;2.92;;
68870;SDS011;55906;52.278;6.808;2023-08-07T02:46:40;7.83;;;2.70;;
68870;SDS011;55906;52.278;6.808;2023-08-07T02:49:07;5.88;;;3.05;;
68870;SDS011;55906;52.278;6.808;2023-08-07T02:51:33;6.07;;;3.42;;
68870;SDS011;55906;52.278;6.808;2023-08-07T02:54:00;8.77;;;3.50;;
68870;SDS011;55906;52.278;6.808;2023-08-07T02:56:26;5.95;;;3.55;;
68870;SDS011;55906;52.278;6.808;2023-08-07T02:58:53;5.27;;;2.90;;
68870;SDS011;55906;52.278;6.808;2023-08-07T03:01:20;5.60;;;2.53;;
68870;SDS011;55906;52.278;6.808;2023-08-07T03:03:48;5.72;;;3.00;;
68870;SDS011;55906;52.278;6.808;2023-08-07T03:06:15;5.18;;;2.55;;
68870;SDS011;55906;52.278;6.808;2023-08-07T03:08:41;8.10;;;3.22;;
68870;SDS011;55906;52.278;6.808;2023-08-07T03:11:08;7.83;;;2.70;;
68870;SDS011;55906;52.278;6.808;2023-08-07T03:13:34;6.85;;;2.85;;
68870;SDS011;55906;52.278;6.808;2023-08-07T03:16:01;6.75;;;3.60;;
68870;SDS011;55906;52.278;6.808;2023-08-07T03:18:29;6.95;;;2.90;;
68870;SDS011;55906;52.278;6.808;2023-08-07T03:20:58;8.48;;;2.92;;
68870;SDS011;55906;52.278;6.808;2023-08-07T03:23:25;6.23;;;2.40;;
68870;SDS011;55906;52.278;6.808;2023-08-07T03:26:01;7.15;;;2.20;;
68870;SDS011;55906;52.278;6.808;2023-08-07T03:28:29;4.47;;;2.40;;
68870;SDS011;55906;52.278;6.808;2023-08-07T03:30:55;4.80;;;2.00;;
68870;SDS011;55906;52.278;6.808;2023-08-07T03:33:22;4.20;;;2.22;;
68870;SDS011;55906;52.278;6.808;2023-08-07T03:35:49;5.33;;;2.50;;
68870;SDS011;55906;52.278;6.808;2023-08-07T03:38:17;6.28;;;2.88;;
68870;SDS011;55906;52.278;6.808;2023-08-07T03:40:43;6.00;;;3.42;;
68870;SDS011;55906;52.278;6.808;2023-08-07T03:43:10;7.35;;;3.55;;
68870;SDS011;55906;52.278;6.808;2023-08-07T03:45:37;6.90;;;3.70;;
68870;SDS011;55906;52.278;6.808;2023-08-07T03:48:04;7.13;;;3.93;;
68870;SDS011;55906;52.278;6.808;2023-08-07T03:50:31;8.52;;;4.40;;
68870;SDS011;55906;52.278;6.808;2023-08-07T03:53:00;9.88;;;4.88;;
68870;SDS011;55906;52.278;6.808;2023-08-07T03:55:27;9.70;;;4.90;;
68870;SDS011;55906;52.278;6.808;2023-08-07T03:57:54;9.02;;;4.82;;
68870;SDS011;55906;52.278;6.808;2023-08-07T04:00:21;9.73;;;5.10;;
68870;SDS011;55906;52.278;6.808;2023-08-07T04:02:48;9.98;;;5.85;;
68870;SDS011;55906;52.278;6.808;2023-08-07T04:05:14;10.73;;;6.15;;
68870;SDS011;55906;52.278;6.808;2023-08-07T04:07:41;11.38;;;5.75;;
68870;SDS011;55906;52.278;6.808;2023-08-07T04:10:08;13.52;;;6.32;;
68870;SDS011;55906;52.278;6.808;2023-08-07T04:12:36;9.97;;;5.33;;
68870;SDS011;55906;52.278;6.808;2023-08-07T04:15:03;11.95;;;5.80;;
68870;SDS011;55906;52.278;6.808;2023-08-07T04:17:31;10.02;;;6.10;;
68870;SDS011;55906;52.278;6.808;2023-08-07T04:19:58;12.32;;;5.95;;
68870;SDS011;55906;52.278;6.808;2023-08-07T04:22:25;11.55;;;5.68;;
68870;SDS011;55906;52.278;6.808;2023-08-07T04:24:51;10.07;;;4.40;;
68870;SDS011;55906;52.278;6.808;2023-08-07T04:27:18;7.80;;;4.70;;
68870;SDS011;55906;52.278;6.808;2023-08-07T04:29:46;8.75;;;4.70;;
68870;SDS011;55906;52.278;6.808;2023-08-07T04:32:13;8.82;;;4.55;;
68870;SDS011;55906;52.278;6.808;2023-08-07T04:34:39;9.43;;;4.68;;
68870;SDS011;55906;52.278;6.808;2023-08-07T04:37:06;9.60;;;4.30;;
68870;SDS011;55906;52.278;6.808;2023-08-07T04:39:33;11.13;;;4.57;;
68870;SDS011;55906;52.278;6.808;2023-08-07T04:42:00;8.65;;;4.15;;
68870;SDS011;55906;52.278;6.808;2023-08-07T04:44:27;6.88;;;3.55;;
68870;SDS011;55906;52.278;6.808;2023-08-07T04:46:55;8.00;;;4.50;;
68870;SDS011;55906;52.278;6.808;2023-08-07T04:49:22;7.60;;;4.10;;
68870;SDS011;55906;52.278;6.808;2023-08-07T04:51:48;7.78;;;3.95;;
68870;SDS011;55906;52.278;6.808;2023-08-07T04:54:15;8.05;;;4.05;;
68870;SDS011;55906;52.278;6.808;2023-08-07T04:56:41;8.13;;;3.67;;
68870;SDS011;55906;52.278;6.808;2023-08-07T04:59:09;9.98;;;4.93;;
68870;SDS011;55906;52.278;6.808;2023-08-07T05:01:36;7.20;;;4.00;;
68870;SDS011;55906;52.278;6.808;2023-08-07T05:04:04;8.40;;;3.55;;
68870;SDS011;55906;52.278;6.808;2023-08-07T05:06:31;7.93;;;4.40;;
68870;SDS011;55906;52.278;6.808;2023-08-07T05:08:58;8.63;;;3.60;;
68870;SDS011;55906;52.278;6.808;2023-08-07T05:11:25;11.65;;;4.55;;
68870;SDS011;55906;52.278;6.808;2023-08-07T05:13:51;7.50;;;3.80;;
68870;SDS011;55906;52.278;6.808;2023-08-07T05:16:18;9.20;;;3.83;;
68870;SDS011;55906;52.278;6.808;2023-08-07T05:18:45;8.32;;;3.88;;
68870;SDS011;55906;52.278;6.808;2023-08-07T05:21:13;11.57;;;5.38;;
68870;SDS011;55906;52.278;6.808;2023-08-07T05:23:39;10.32;;;4.88;;
68870;SDS011;55906;52.278;6.808;2023-08-07T05:26:06;9.67;;;4.60;;
68870;SDS011;55906;52.278;6.808;2023-08-07T05:28:32;8.40;;;4.45;;
68870;SDS011;55906;52.278;6.808;2023-08-07T05:30:59;7.88;;;4.60;;
68870;SDS011;55906;52.278;6.808;2023-08-07T05:33:26;9.45;;;4.43;;
68870;SDS011;55906;52.278;6.808;2023-08-07T05:35:52;7.93;;;4.05;;
68870;SDS011;55906;52.278;6.808;2023-08-07T05:38:22;9.43;;;3.60;;
68870;SDS011;55906;52.278;6.808;2023-08-07T05:40:48;8.52;;;3.20;;
68870;SDS011;55906;52.278;6.808;2023-08-07T05:43:16;12.85;;;4.60;;
68870;SDS011;55906;52.278;6.808;2023-08-07T05:45:43;9.23;;;3.47;;
68870;SDS011;55906;52.278;6.808;2023-08-07T05:48:11;9.52;;;3.85;;
68870;SDS011;55906;52.278;6.808;2023-08-07T05:50:38;11.37;;;3.87;;
68870;SDS011;55906;52.278;6.808;2023-08-07T05:53:04;10.85;;;3.92;;
68870;SDS011;55906;52.278;6.808;2023-08-07T05:55:32;8.05;;;4.13;;
68870;SDS011;55906;52.278;6.808;2023-08-07T05:57:59;11.15;;;4.30;;
68870;SDS011;55906;52.278;6.808;2023-08-07T06:00:26;6.75;;;3.03;;
68870;SDS011;55906;52.278;6.808;2023-08-07T06:02:53;8.40;;;3.73;;
68870;SDS011;55906;52.278;6.808;2023-08-07T06:05:20;8.30;;;3.65;;
68870;SDS011;55906;52.278;6.808;2023-08-07T06:07:46;11.93;;;4.28;;
68870;SDS011;55906;52.278;6.808;2023-08-07T06:10:13;9.43;;;3.40;;
68870;SDS011;55906;52.278;6.808;2023-08-07T06:12:41;9.55;;;3.78;;
68870;SDS011;55906;52.278;6.808;2023-08-07T06:15:08;8.60;;;3.70;;
68870;SDS011;55906;52.278;6.808;2023-08-07T06:17:35;9.77;;;4.22;;
68870;SDS011;55906;52.278;6.808;2023-08-07T06:20:04;7.25;;;3.50;;
68870;SDS011;55906;52.278;6.808;2023-08-07T06:22:34;7.38;;;3.40;;
68870;SDS011;55906;52.278;6.808;2023-08-07T06:25:01;9.98;;;3.70;;
68870;SDS011;55906;52.278;6.808;2023-08-07T06:27:27;8.70;;;3.40;;
68870;SDS011;55906;52.278;6.808;2023-08-07T06:29:57;9.02;;;3.72;;
68870;SDS011;55906;52.278;6.808;2023-08-07T06:32:24;7.45;;;3.78;;
68870;SDS011;55906;52.278;6.808;2023-08-07T06:34:51;8.82;;;3.55;;
68870;SDS011;55906;52.278;6.808;2023-08-07T06:37:17;11.30;;;3.50;;
68870;SDS011;55906;52.278;6.808;2023-08-07T06:39:44;8.93;;;3.60;;
68870;SDS011;55906;52.278;6.808;2023-08-07T06:42:11;9.18;;;3.25;;
68870;SDS011;55906;52.278;6.808;2023-08-07T06:44:38;6.78;;;3.85;;
68870;SDS011;55906;52.278;6.808;2023-08-07T06:47:07;8.10;;;3.75;;
68870;SDS011;55906;52.278;6.808;2023-08-07T06:49:33;6.53;;;3.45;;
68870;SDS011;55906;52.278;6.808;2023-08-07T06:52:00;8.47;;;3.97;;
68870;SDS011;55906;52.278;6.808;2023-08-07T06:54:27;9.57;;;3.67;;
68870;SDS011;55906;52.278;6.808;2023-08-07T06:56:53;10.57;;;3.65;;
68870;SDS011;55906;52.278;6.808;2023-08-07T06:59:20;11.35;;;3.90;;
68870;SDS011;55906;52.278;6.808;2023-08-07T07:01:46;7.95;;;3.65;;
68870;SDS011;55906;52.278;6.808;2023-08-07T07:04:15;7.57;;;3.23;;
68870;SDS011;55906;52.278;6.808;2023-08-07T07:06:43;11.70;;;4.00;;
68870;SDS011;55906;52.278;6.808;2023-08-07T07:09:10;9.60;;;3.63;;
68870;SDS011;55906;52.278;6.808;2023-08-07T07:11:41;7.47;;;4.03;;
68870;SDS011;55906;52.278;6.808;2023-08-07T07:14:08;7.57;;;3.55;;
68870;SDS011;55906;52.278;6.808;2023-08-07T07:16:34;10.97;;;3.70;;
68870;SDS011;55906;52.278;6.808;2023-08-07T07:19:02;10.27;;;4.15;;
68870;SDS011;55906;52.278;6.808;2023-08-07T07:21:32;9.63;;;3.25;;
68870;SDS011;55906;52.278;6.808;2023-08-07T07:23:59;7.32;;;3.63;;
68870;SDS011;55906;52.278;6.808;2023-08-07T07:26:26;11.38;;;3.72;;
68870;SDS011;55906;52.278;6.808;2023-08-07T07:28:52;10.93;;;3.83;;
68870;SDS011;55906;52.278;6.808;2023-08-07T07:31:19;11.48;;;4.07;;
68870;SDS011;55906;52.278;6.808;2023-08-07T07:33:46;8.98;;;4.00;;
68870;SDS011;55906;52.278;6.808;2023-08-07T07:36:15;9.95;;;4.18;;
68870;SDS011;55906;52.278;6.808;2023-08-07T07:38:46;10.77;;;4.28;;
68870;SDS011;55906;52.278;6.808;2023-08-07T07:41:13;11.40;;;3.97;;
68870;SDS011;55906;52.278;6.808;2023-08-07T07:43:40;8.32;;;3.45;;
68870;SDS011;55906;52.278;6.808;2023-08-07T07:46:06;12.73;;;3.90;;
68870;SDS011;55906;52.278;6.808;2023-08-07T07:48:33;13.05;;;4.07;;
68870;SDS011;55906;52.278;6.808;2023-08-07T07:51:00;10.25;;;4.05;;
68870;SDS011;55906;52.278;6.808;2023-08-07T07:53:28;8.47;;;3.47;;
68870;SDS011;55906;52.278;6.808;2023-08-07T07:55:56;11.88;;;4.63;;
68870;SDS011;55906;52.278;6.808;2023-08-07T07:58:23;8.32;;;4.03;;
68870;SDS011;55906;52.278;6.808;2023-08-07T08:00:50;11.52;;;3.95;;
68870;SDS011;55906;52.278;6.808;2023-08-07T08:03:18;9.20;;;3.72;;
68870;SDS011;55906;52.278;6.808;2023-08-07T08:05:45;8.93;;;3.40;;
68870;SDS011;55906;52.278;6.808;2023-08-07T08:08:14;7.93;;;3.28;;
68870;SDS011;55906;52.278;6.808;2023-08-07T08:10:42;11.23;;;4.05;;
68870;SDS011;55906;52.278;6.808;2023-08-07T08:13:10;11.43;;;3.60;;
68870;SDS011;55906;52.278;6.808;2023-08-07T08:15:37;11.40;;;3.50;;
68870;SDS011;55906;52.278;6.808;2023-08-07T08:18:03;8.90;;;3.27;;
68870;SDS011;55906;52.278;6.808;2023-08-07T08:20:30;10.65;;;3.33;;
68870;SDS011;55906;52.278;6.808;2023-08-07T08:22:58;8.98;;;3.67;;
68870;SDS011;55906;52.278;6.808;2023-08-07T08:25:24;14.13;;;3.92;;
68870;SDS011;55906;52.278;6.808;2023-08-07T08:27:51;10.07;;;4.15;;
68870;SDS011;55906;52.278;6.808;2023-08-07T08:30:19;8.20;;;3.50;;
68870;SDS011;55906;52.278;6.808;2023-08-07T08:32:46;12.00;;;3.30;;
68870;SDS011;55906;52.278;6.808;2023-08-07T08:35:13;11.70;;;3.40;;
68870;SDS011;55906;52.278;6.808;2023-08-07T08:37:40;10.80;;;3.22;;
68870;SDS011;55906;52.278;6.808;2023-08-07T08:40:08;7.30;;;3.10;;
68870;SDS011;55906;52.278;6.808;2023-08-07T08:42:37;8.30;;;3.30;;
68870;SDS011;55906;52.278;6.808;2023-08-07T08:45:05;6.85;;;3.17;;
68870;SDS011;55906;52.278;6.808;2023-08-07T08:47:38;18.20;;;9.07;;
68870;SDS011;55906;52.278;6.808;2023-08-07T08:50:06;33.03;;;18.67;;
68870;SDS011;55906;52.278;6.808;2023-08-07T08:52:36;40.97;;;21.65;;
68870;SDS011;55906;52.278;6.808;2023-08-07T08:55:04;35.57;;;16.50;;
68870;SDS011;55906;52.278;6.808;2023-08-07T08:57:31;21.10;;;10.07;;
68870;SDS011;55906;52.278;6.808;2023-08-07T08:59:59;19.73;;;8.55;;
68870;SDS011;55906;52.278;6.808;2023-08-07T09:02:27;13.02;;;5.90;;
68870;SDS011;55906;52.278;6.808;2023-08-07T09:04:55;9.88;;;3.95;;
68870;SDS011;55906;52.278;6.808;2023-08-07T09:07:22;10.10;;;3.30;;
68870;SDS011;55906;52.278;6.808;2023-08-07T09:09:51;8.98;;;3.30;;
68870;SDS011;55906;52.278;6.808;2023-08-07T09:12:20;9.05;;;3.15;;
68870;SDS011;55906;52.278;6.808;2023-08-07T09:14:49;7.60;;;2.70;;
68870;SDS011;55906;52.278;6.808;2023-08-07T09:17:19;10.65;;;3.13;;
68870;SDS011;55906;52.278;6.808;2023-08-07T09:19:50;14.47;;;3.27;;
68870;SDS011;55906;52.278;6.808;2023-08-07T09:22:18;11.23;;;3.08;;
68870;SDS011;55906;52.278;6.808;2023-08-07T09:24:45;9.77;;;2.58;;
68870;SDS011;55906;52.278;6.808;2023-08-07T09:27:12;9.32;;;2.70;;
68870;SDS011;55906;52.278;6.808;2023-08-07T09:29:39;6.93;;;2.78;;
68870;SDS011;55906;52.278;6.808;2023-08-07T09:32:06;7.00;;;2.47;;
68870;SDS011;55906;52.278;6.808;2023-08-07T09:34:34;8.00;;;3.20;;
68870;SDS011;55906;52.278;6.808;2023-08-07T09:37:01;9.57;;;3.08;;
68870;SDS011;55906;52.278;6.808;2023-08-07T09:39:31;12.68;;;2.67;;
68870;SDS011;55906;52.278;6.808;2023-08-07T09:41:57;8.88;;;3.42;;
68870;SDS011;55906;52.278;6.808;2023-08-07T09:44:24;7.90;;;2.70;;
68870;SDS011;55906;52.278;6.808;2023-08-07T09:46:50;9.13;;;3.00;;
68870;SDS011;55906;52.278;6.808;2023-08-07T09:49:18;8.02;;;2.80;;
68870;SDS011;55906;52.278;6.808;2023-08-07T09:51:45;8.88;;;3.33;;
68870;SDS011;55906;52.278;6.808;2023-08-07T09:54:12;8.43;;;2.45;;
68870;SDS011;55906;52.278;6.808;2023-08-07T09:56:41;6.00;;;2.23;;
68870;SDS011;55906;52.278;6.808;2023-08-07T09:59:07;7.03;;;3.03;;
68870;SDS011;55906;52.278;6.808;2023-08-07T10:01:36;9.27;;;2.65;;
68870;SDS011;55906;52.278;6.808;2023-08-07T10:04:04;8.25;;;2.72;;
68870;SDS011;55906;52.278;6.808;2023-08-07T10:06:31;8.32;;;2.25;;
68870;SDS011;55906;52.278;6.808;2023-08-07T10:08:58;9.27;;;2.90;;
68870;SDS011;55906;52.278;6.808;2023-08-07T10:11:27;11.82;;;2.65;;
68870;SDS011;55906;52.278;6.808;2023-08-07T10:13:56;7.03;;;2.53;;
68870;SDS011;55906;52.278;6.808;2023-08-07T10:16:24;6.53;;;2.50;;
68870;SDS011;55906;52.278;6.808;2023-08-07T10:18:52;9.85;;;2.85;;
68870;SDS011;55906;52.278;6.808;2023-08-07T10:21:19;10.20;;;2.70;;
68870;SDS011;55906;52.278;6.808;2023-08-07T10:23:46;9.25;;;2.78;;
68870;SDS011;55906;52.278;6.808;2023-08-07T10:26:16;8.20;;;2.85;;
68870;SDS011;55906;52.278;6.808;2023-08-07T10:28:43;7.38;;;2.33;;
68870;SDS011;55906;52.278;6.808;2023-08-07T10:31:11;8.10;;;2.75;;
68870;SDS011;55906;52.278;6.808;2023-08-07T10:33:40;7.17;;;2.60;;
68870;SDS011;55906;52.278;6.808;2023-08-07T10:36:10;7.95;;;2.55;;
68870;SDS011;55906;52.278;6.808;2023-08-07T10:38:37;6.75;;;2.30;;
68870;SDS011;55906;52.278;6.808;2023-08-07T10:41:06;7.32;;;2.20;;
68870;SDS011;55906;52.278;6.808;2023-08-07T10:43:36;6.95;;;2.53;;
68870;SDS011;55906;52.278;6.808;2023-08-07T10:46:04;6.97;;;1.97;;
68870;SDS011;55906;52.278;6.808;2023-08-07T10:48:39;4.05;;;1.80;;
68870;SDS011;55906;52.278;6.808;2023-08-07T10:51:06;5.63;;;2.25;;
68870;SDS011;55906;52.278;6.808;2023-08-07T10:53:34;7.78;;;2.60;;
68870;SDS011;55906;52.278;6.808;2023-08-07T10:56:02;6.07;;;2.50;;
68870;SDS011;55906;52.278;6.808;2023-08-07T10:58:32;5.70;;;2.17;;
68870;SDS011;55906;52.278;6.808;2023-08-07T11:01:19;7.47;;;2.47;;
68870;SDS011;55906;52.278;6.808;2023-08-07T11:03:49;8.10;;;2.97;;
68870;SDS011;55906;52.278;6.808;2023-08-07T11:06:18;7.40;;;2.97;;
68870;SDS011;55906;52.278;6.808;2023-08-07T11:08:48;7.72;;;2.42;;
68870;SDS011;55906;52.278;6.808;2023-08-07T11:11:15;6.73;;;2.50;;
68870;SDS011;55906;52.278;6.808;2023-08-07T11:13:42;8.82;;;2.85;;
68870;SDS011;55906;52.278;6.808;2023-08-07T11:16:09;6.05;;;2.90;;
68870;SDS011;55906;52.278;6.808;2023-08-07T11:18:37;7.47;;;3.05;;
68870;SDS011;55906;52.278;6.808;2023-08-07T11:21:07;6.65;;;2.58;;
68870;SDS011;55906;52.278;6.808;2023-08-07T11:23:35;6.97;;;2.73;;
68870;SDS011;55906;52.278;6.808;2023-08-07T11:26:02;8.23;;;2.70;;
68870;SDS011;55906;52.278;6.808;2023-08-07T11:28:29;7.80;;;2.60;;
68870;SDS011;55906;52.278;6.808;2023-08-07T11:30:56;7.97;;;2.40;;
68870;SDS011;55906;52.278;6.808;2023-08-07T11:33:23;6.38;;;2.30;;
68870;SDS011;55906;52.278;6.808;2023-08-07T11:35:51;8.07;;;2.47;;
68870;SDS011;55906;52.278;6.808;2023-08-07T11:38:29;6.18;;;2.28;;
68870;SDS011;55906;52.278;6.808;2023-08-07T11:40:58;7.15;;;2.42;;
68870;SDS011;55906;52.278;6.808;2023-08-07T11:43:26;6.28;;;2.00;;
68870;SDS011;55906;52.278;6.808;2023-08-07T11:45:54;4.95;;;2.20;;
68870;SDS011;55906;52.278;6.808;2023-08-07T11:48:23;6.20;;;2.50;;
68870;SDS011;55906;52.278;6.808;2023-08-07T11:50:50;6.82;;;2.53;;
68870;SDS011;55906;52.278;6.808;2023-08-07T11:53:17;6.45;;;2.47;;
68870;SDS011;55906;52.278;6.808;2023-08-07T11:55:51;7.78;;;2.72;;
68870;SDS011;55906;52.278;6.808;2023-08-07T11:58:18;7.13;;;2.40;;
68870;SDS011;55906;52.278;6.808;2023-08-07T12:00:45;6.80;;;2.20;;
68870;SDS011;55906;52.278;6.808;2023-08-07T12:03:25;6.30;;;2.42;;
68870;SDS011;55906;52.278;6.808;2023-08-07T12:05:54;7.10;;;2.78;;
68870;SDS011;55906;52.278;6.808;2023-08-07T12:08:21;5.63;;;2.70;;
68870;SDS011;55906;52.278;6.808;2023-08-07T12:10:50;6.75;;;2.50;;
68870;SDS011;55906;52.278;6.808;2023-08-07T12:13:20;7.10;;;2.43;;
68870;SDS011;55906;52.278;6.808;2023-08-07T12:15:50;7.93;;;2.58;;
68870;SDS011;55906;52.278;6.808;2023-08-07T12:18:19;7.75;;;2.60;;
68870;SDS011;55906;52.278;6.808;2023-08-07T12:20:47;6.32;;;2.60;;
68870;SDS011;55906;52.278;6.808;2023-08-07T12:23:15;8.35;;;2.90;;
68870;SDS011;55906;52.278;6.808;2023-08-07T12:25:42;6.63;;;2.77;;
68870;SDS011;55906;52.278;6.808;2023-08-07T12:28:10;6.88;;;2.15;;
68870;SDS011;55906;52.278;6.808;2023-08-07T12:30:37;8.05;;;2.92;;
68870;SDS011;55906;52.278;6.808;2023-08-07T12:33:04;8.05;;;3.13;;
68870;SDS011;55906;52.278;6.808;2023-08-07T12:35:32;5.93;;;2.63;;
68870;SDS011;55906;52.278;6.808;2023-08-07T12:37:59;6.83;;;2.27;;
68870;SDS011;55906;52.278;6.808;2023-08-07T12:40:26;7.13;;;2.50;;
68870;SDS011;55906;52.278;6.808;2023-08-07T12:42:53;6.75;;;2.45;;
68870;SDS011;55906;52.278;6.808;2023-08-07T12:45:21;6.05;;;2.38;;
68870;SDS011;55906;52.278;6.808;2023-08-07T12:47:48;7.20;;;2.45;;
68870;SDS011;55906;52.278;6.808;2023-08-07T12:50:15;6.60;;;2.57;;
68870;SDS011;55906;52.278;6.808;2023-08-07T12:52:42;6.88;;;2.22;;
68870;SDS011;55906;52.278;6.808;2023-08-07T12:55:09;6.93;;;2.30;;
68870;SDS011;55906;52.278;6.808;2023-08-07T12:57:37;6.55;;;2.15;;
68870;SDS011;55906;52.278;6.808;2023-08-07T13:00:04;4.32;;;1.90;;
68870;SDS011;55906;52.278;6.808;2023-08-07T13:02:34;5.47;;;1.50;;
68870;SDS011;55906;52.278;6.808;2023-08-07T13:05:01;4.97;;;2.00;;
68870;SDS011;55906;52.278;6.808;2023-08-07T13:07:27;6.80;;;2.35;;
68870;SDS011;55906;52.278;6.808;2023-08-07T13:09:54;7.97;;;1.92;;
68870;SDS011;55906;52.278;6.808;2023-08-07T13:12:22;5.25;;;2.03;;
68870;SDS011;55906;52.278;6.808;2023-08-07T13:14:48;6.70;;;1.50;;
68870;SDS011;55906;52.278;6.808;2023-08-07T13:17:15;4.90;;;2.10;;
68870;SDS011;55906;52.278;6.808;2023-08-07T13:19:43;4.10;;;1.77;;
68870;SDS011;55906;52.278;6.808;2023-08-07T13:22:10;6.07;;;2.03;;
68870;SDS011;55906;52.278;6.808;2023-08-07T13:24:36;4.43;;;1.77;;
68870;SDS011;55906;52.278;6.808;2023-08-07T13:27:03;4.27;;;1.53;;
68870;SDS011;55906;52.278;6.808;2023-08-07T13:29:30;5.78;;;1.85;;
68870;SDS011;55906;52.278;6.808;2023-08-07T13:31:57;6.53;;;1.88;;
68870;SDS011;55906;52.278;6.808;2023-08-07T13:34:23;7.32;;;1.98;;
68870;SDS011;55906;52.278;6.808;2023-08-07T13:36:51;6.15;;;1.73;;
68870;SDS011;55906;52.278;6.808;2023-08-07T13:39:18;5.37;;;1.57;;
68870;SDS011;55906;52.278;6.808;2023-08-07T13:41:44;6.50;;;2.20;;
68870;SDS011;55906;52.278;6.808;2023-08-07T13:44:12;6.70;;;1.95;;
68870;SDS011;55906;52.278;6.808;2023-08-07T13:46:39;5.07;;;1.60;;
68870;SDS011;55906;52.278;6.808;2023-08-07T13:49:05;7.85;;;2.00;;
68870;SDS011;55906;52.278;6.808;2023-08-07T13:51:32;5.77;;;1.67;;
68870;SDS011;55906;52.278;6.808;2023-08-07T13:54:00;7.40;;;2.15;;
68870;SDS011;55906;52.278;6.808;2023-08-07T13:56:26;7.13;;;2.13;;
68870;SDS011;55906;52.278;6.808;2023-08-07T13:58:53;5.00;;;2.00;;
68870;SDS011;55906;52.278;6.808;2023-08-07T14:01:20;4.97;;;2.10;;
68870;SDS011;55906;52.278;6.808;2023-08-07T14:03:47;5.90;;;1.97;;
68870;SDS011;55906;52.278;6.808;2023-08-07T14:06:13;6.13;;;2.00;;
68870;SDS011;55906;52.278;6.808;2023-08-07T14:08:40;5.32;;;1.90;;
68870;SDS011;55906;52.278;6.808;2023-08-07T14:11:08;6.28;;;1.92;;
68870;SDS011;55906;52.278;6.808;2023-08-07T14:13:35;6.65;;;2.00;;
68870;SDS011;55906;52.278;6.808;2023-08-07T14:16:01;6.40;;;1.90;;
68870;SDS011;55906;52.278;6.808;2023-08-07T14:18:28;7.78;;;1.90;;
68870;SDS011;55906;52.278;6.808;2023-08-07T14:20:54;5.75;;;1.80;;
68870;SDS011;55906;52.278;6.808;2023-08-07T14:23:21;6.53;;;1.90;;
68870;SDS011;55906;52.278;6.808;2023-08-07T14:25:48;6.30;;;1.98;;
68870;SDS011;55906;52.278;6.808;2023-08-07T14:28:17;6.23;;;1.90;;
68870;SDS011;55906;52.278;6.808;2023-08-07T14:30:44;5.65;;;2.10;;
68870;SDS011;55906;52.278;6.808;2023-08-07T14:33:10;5.93;;;1.73;;
68870;SDS011;55906;52.278;6.808;2023-08-07T14:35:38;5.88;;;1.92;;
68870;SDS011;55906;52.278;6.808;2023-08-07T14:38:05;6.50;;;1.98;;
68870;SDS011;55906;52.278;6.808;2023-08-07T14:40:32;9.20;;;2.30;;
68870;SDS011;55906;52.278;6.808;2023-08-07T14:42:58;7.22;;;2.00;;
68870;SDS011;55906;52.278;6.808;2023-08-07T14:45:26;5.80;;;1.90;;
68870;SDS011;55906;52.278;6.808;2023-08-07T14:47:53;6.47;;;1.88;;